Amstetten, Austria

8:37 PM CEST on July 24, 2016 (GMT +0200)
DBSolutions, Winklarn, Austria | | Change Station

Elev 1050 ft 48.09 °N, 14.85 °E | Updated 14 seconds ago

Clear
Clear
73.8 °F
Feels Like 75 °F
N
0.0
Wind Variable Wind from SW
Gusts 0.0 mph

Today
High -- | Low -- °F
--% Chance of Precip.
Yesterday
High -- | Low -- °F
Precip. -- in
Pressure 30.04 in
Visibility 6.2 miles
Clouds
Heat Index 75 °F
Dew Point 65 °F
Humidity 73%
Rainfall 0.07 in
Snow Depth Not available.
5:26 AM 8:46 PM
Waning Gibbous, 74% visible
METAR LOWL 241820Z AUTO 31005KT 9999 NCD 26/15 Q1017 NOSIG
Pressure 30.04 in
Visibility 6.2 miles
Clouds
Heat Index 75 °F
Dew Point 65 °F
Humidity 73%
Rainfall 0.07 in
Snow Depth Not available.
5:26 AM 8:46 PM
Waning Gibbous, 74% visible
METAR LOWL 241820Z AUTO 31005KT 9999 NCD 26/15 Q1017 NOSIG

10-Day Weather Forecast

×

Almanac

Astronomy

Jul. 24, 2016 Rise Set
Actual Time
Civil Twilight
Nautical Twilight
Astronomical Twilight
Moon
Length of Visible Light
Length of Day
Tomorrow will be .
, % of the Moon is Illuminated

Today's Extremes

Country Highs Country Lows

Community

WunderPhotos

Upload Photos

1,927,153 photos uploaded!

WunderBlog® & News

Nearby

Air Quality

  Air Quality AQ Index Pollutant
Not available.

Snow Depth

Station Depth Elevation

Earthquake Activity

City Distance Mag. Time & Date
Minimum magnitude displayed is 2.5.

Coastal Water Temperatures

Place Temperature

Stations

Nearby Weather Stations

Station Location Temp. Windchill Dew Point Humidity Wind Precip. Elev Updated Type